createdAt,value
2018-09-08T00:01:05.462Z,20.13
2018-09-08T00:03:34.814Z,20.04
2018-09-08T00:06:04.541Z,19.94
2018-09-08T00:08:34.342Z,20.00
2018-09-08T00:11:04.590Z,19.96
2018-09-08T00:13:34.100Z,19.95
2018-09-08T00:16:08.708Z,19.92
2018-09-08T00:18:43.387Z,19.87
2018-09-08T00:21:17.743Z,19.80
2018-09-08T00:23:52.370Z,19.79
2018-09-08T00:26:27.037Z,19.76
2018-09-08T00:29:00.843Z,19.76
2018-09-08T00:31:30.623Z,19.72
2018-09-08T00:34:00.083Z,19.65
2018-09-08T00:36:29.621Z,19.68
2018-09-08T00:38:59.040Z,19.61
2018-09-08T00:41:29.246Z,19.49
2018-09-08T00:43:59.091Z,19.41
2018-09-08T00:46:29.161Z,19.28
2018-09-08T00:48:59.703Z,19.30
2018-09-08T00:51:29.534Z,19.26
2018-09-08T00:53:59.243Z,19.28
2018-09-08T00:56:29.130Z,19.27
2018-09-08T00:59:05.250Z,18.96
2018-09-08T01:01:36.232Z,18.92
2018-09-08T01:04:06.114Z,18.97
2018-09-08T01:06:35.685Z,19.05
2018-09-08T01:09:06.771Z,19.02
2018-09-08T01:11:36.629Z,19.02
2018-09-08T01:14:06.468Z,18.97
2018-09-08T01:16:36.311Z,19.00
2018-09-08T01:19:07.054Z,18.98
2018-09-08T01:21:36.776Z,19.00
2018-09-08T01:24:06.212Z,19.01
2018-09-08T01:26:36.017Z,19.03
2018-09-08T01:29:06.634Z,19.03
2018-09-08T01:31:36.642Z,18.96
2018-09-08T01:34:06.145Z,18.80
2018-09-08T01:36:36.212Z,18.77
2018-09-08T01:39:06.781Z,18.79
2018-09-08T01:41:36.547Z,18.70
2018-09-08T01:44:06.102Z,18.67
2018-09-08T01:46:35.581Z,18.67
2018-09-08T01:49:05.105Z,18.61
2018-09-08T01:51:34.630Z,18.60
2018-09-08T01:54:04.098Z,18.53
2018-09-08T01:56:34.065Z,18.45
2018-09-08T01:59:03.787Z,18.49
2018-09-08T02:01:33.443Z,18.40
2018-09-08T02:04:03.022Z,18.45
2018-09-08T02:06:32.866Z,18.40
2018-09-08T02:09:02.572Z,18.43
2018-09-08T02:11:32.199Z,18.39
2018-09-08T02:14:01.873Z,18.51
2018-09-08T02:16:31.659Z,18.46
2018-09-08T02:19:02.263Z,18.41
2018-09-08T02:21:31.920Z,18.29
2018-09-08T02:24:01.596Z,18.31
2018-09-08T02:26:31.158Z,18.30
2018-09-08T02:29:00.637Z,18.31
2018-09-08T02:31:30.175Z,18.22
2018-09-08T02:33:59.726Z,18.19
2018-09-08T02:36:29.527Z,18.33
2018-09-08T02:38:59.338Z,18.17
2018-09-08T02:41:28.809Z,18.19
2018-09-08T02:43:58.352Z,18.14
2018-09-08T02:46:28.041Z,18.10
2018-09-08T02:48:58.410Z,18.01
2018-09-08T02:51:27.012Z,18.11
2018-09-08T02:53:54.913Z,18.17
2018-09-08T02:56:23.166Z,18.14
2018-09-08T02:58:51.315Z,18.19
2018-09-08T03:01:19.542Z,18.18
2018-09-08T03:03:48.031Z,18.14
2018-09-08T03:06:15.989Z,18.12
2018-09-08T03:08:44.014Z,18.06
2018-09-08T03:11:12.028Z,18.06
2018-09-08T03:13:40.093Z,18.01
2018-09-08T03:16:08.377Z,17.99
2018-09-08T03:18:36.440Z,17.99
2018-09-08T03:21:04.715Z,18.07
2018-09-08T03:23:32.690Z,17.98
2018-09-08T03:26:00.754Z,17.90
2018-09-08T03:28:28.826Z,17.88
2018-09-08T03:30:56.794Z,17.82
2018-09-08T03:33:24.764Z,17.84
2018-09-08T03:35:52.736Z,17.82
2018-09-08T03:38:20.595Z,17.70
2018-09-08T03:40:48.872Z,17.74
2018-09-08T03:43:16.900Z,17.75
2018-09-08T03:45:45.227Z,17.80
2018-09-08T03:48:13.287Z,17.86
2018-09-08T03:50:41.562Z,17.79
2018-09-08T03:53:09.542Z,17.86
2018-09-08T03:55:37.604Z,17.89
2018-09-08T03:58:05.627Z,17.94
2018-09-08T04:00:33.743Z,18.00
2018-09-08T04:03:03.331Z,17.43
2018-09-08T04:05:32.845Z,17.95
2018-09-08T04:08:02.470Z,17.84
2018-09-08T04:10:32.022Z,17.90
2018-09-08T04:13:01.785Z,17.89
2018-09-08T04:15:31.530Z,17.87
2018-09-08T04:18:01.326Z,17.73
2018-09-08T04:20:30.970Z,17.66
2018-09-08T04:23:00.557Z,17.77
2018-09-08T04:25:30.297Z,17.99
2018-09-08T04:27:59.768Z,18.03
2018-09-08T04:30:29.431Z,17.89
2018-09-08T04:32:59.106Z,17.91
2018-09-08T04:35:28.950Z,18.05
2018-09-08T04:37:58.583Z,18.00
2018-09-08T04:40:28.233Z,18.06
2018-09-08T04:42:57.853Z,18.19
2018-09-08T04:45:27.418Z,18.19
2018-09-08T04:47:57.580Z,18.07
2018-09-08T04:50:27.859Z,18.08
2018-09-08T04:52:57.491Z,17.99
2018-09-08T04:55:27.140Z,18.09
2018-09-08T04:57:57.768Z,17.95
2018-09-08T05:00:27.299Z,17.98
2018-09-08T05:02:56.981Z,18.16
2018-09-08T05:05:26.637Z,18.61
2018-09-08T05:07:56.366Z,19.03
2018-09-08T05:10:25.897Z,19.37
2018-09-08T05:12:55.378Z,20.20
2018-09-08T05:15:25.328Z,20.55
2018-09-08T05:17:54.953Z,20.73
2018-09-08T05:20:24.516Z,20.59
2018-09-08T05:22:54.151Z,20.71
2018-09-08T05:25:24.143Z,21.30
2018-09-08T05:27:53.709Z,21.89
2018-09-08T05:30:23.522Z,22.15
2018-09-08T05:32:53.145Z,21.79
2018-09-08T05:35:22.729Z,21.89
2018-09-08T05:37:52.287Z,22.15
2018-09-08T05:40:22.462Z,23.18
2018-09-08T05:42:52.249Z,23.97
2018-09-08T05:45:22.567Z,24.38
2018-09-08T05:47:52.229Z,24.95
2018-09-08T05:50:21.761Z,25.08
2018-09-08T05:52:51.435Z,25.54
2018-09-08T05:55:21.267Z,25.79
2018-09-08T05:57:50.729Z,25.95
2018-09-08T06:00:20.348Z,25.96
2018-09-08T06:02:50.056Z,26.52
2018-09-08T06:05:19.571Z,26.73
2018-09-08T06:07:49.323Z,26.41
2018-09-08T06:10:19.118Z,27.31
2018-09-08T06:12:48.811Z,27.27
2018-09-08T06:15:18.526Z,28.36
2018-09-08T06:17:48.112Z,28.50
2018-09-08T06:20:17.705Z,27.23
2018-09-08T06:22:47.296Z,25.57
2018-09-08T06:25:16.800Z,25.63
2018-09-08T06:27:46.476Z,25.26
2018-09-08T06:30:16.868Z,26.02
2018-09-08T06:32:46.373Z,26.52
2018-09-08T06:35:16.149Z,26.79
2018-09-08T06:37:45.707Z,26.73
2018-09-08T06:40:15.208Z,27.12
2018-09-08T06:42:45.110Z,28.23
2018-09-08T06:45:15.006Z,29.31
2018-09-08T06:47:44.534Z,29.28
2018-09-08T06:50:14.162Z,29.55
2018-09-08T06:52:43.711Z,29.17
2018-09-08T06:55:13.215Z,28.85
2018-09-08T06:57:42.779Z,29.34
2018-09-08T07:00:12.494Z,30.14
2018-09-08T07:02:42.192Z,29.28
2018-09-08T07:05:12.002Z,28.99
2018-09-08T07:07:41.581Z,29.06
2018-09-08T07:10:11.063Z,28.78
2018-09-08T07:12:40.966Z,29.12
2018-09-08T07:15:12.834Z,29.47
2018-09-08T07:17:42.333Z,29.05
2018-09-08T07:20:11.979Z,28.68
2018-09-08T07:22:41.486Z,28.62
2018-09-08T07:25:11.329Z,28.45
2018-09-08T07:27:41.099Z,28.81
2018-09-08T07:30:10.798Z,28.49
2018-09-08T07:32:40.375Z,28.70
2018-09-08T07:35:10.069Z,28.55
2018-09-08T07:37:39.742Z,28.58
2018-09-08T07:40:09.598Z,29.06
2018-09-08T07:42:39.249Z,28.58
2018-09-08T07:45:08.922Z,28.56
2018-09-08T07:47:38.904Z,28.71
2018-09-08T07:50:08.759Z,29.27
2018-09-08T07:52:38.428Z,29.26
2018-09-08T07:55:08.043Z,29.08
2018-09-08T07:57:37.671Z,28.79
2018-09-08T08:00:07.634Z,28.56
2018-09-08T08:02:37.388Z,28.58
2018-09-08T08:05:07.145Z,28.68
2018-09-08T08:07:36.689Z,28.31
2018-09-08T08:10:06.376Z,28.40
2018-09-08T08:12:37.252Z,28.66
2018-09-08T08:15:07.546Z,28.68
2018-09-08T08:17:36.981Z,29.47
2018-09-08T08:20:06.823Z,30.08
2018-09-08T08:22:36.419Z,30.49
2018-09-08T08:25:06.361Z,31.53
2018-09-08T08:27:36.758Z,31.84
2018-09-08T08:30:08.770Z,32.35
2018-09-08T08:32:38.616Z,32.42
2018-09-08T08:35:08.345Z,33.17
2018-09-08T08:37:38.079Z,33.73
2018-09-08T08:40:07.645Z,33.55
2018-09-08T08:42:37.328Z,32.58
2018-09-08T08:45:07.192Z,33.85
2018-09-08T08:47:36.882Z,33.40
2018-09-08T08:50:17.195Z,33.38
2018-09-08T08:52:57.733Z,33.34
2018-09-08T08:55:27.684Z,33.64
2018-09-08T08:57:57.417Z,32.81
2018-09-08T09:00:27.049Z,32.85
2018-09-08T09:02:56.695Z,32.64
2018-09-08T09:05:26.823Z,32.61
2018-09-08T09:07:56.434Z,32.74
2018-09-08T09:10:26.231Z,33.70
2018-09-08T09:12:55.965Z,33.95
2018-09-08T09:15:26.023Z,34.40
2018-09-08T09:17:55.626Z,35.64
2018-09-08T09:20:36.239Z,35.26
2018-09-08T09:24:18.464Z,35.52
2018-09-08T09:26:48.221Z,35.58
2018-09-08T09:29:17.757Z,36.05
2018-09-08T09:31:47.774Z,36.95
2018-09-08T09:34:17.346Z,36.80
2018-09-08T09:36:46.833Z,35.92
2018-09-08T09:39:16.387Z,35.44
2018-09-08T09:41:45.890Z,36.13
2018-09-08T09:44:15.664Z,35.94
2018-09-08T09:46:45.338Z,35.13
2018-09-08T09:49:14.885Z,36.25
2018-09-08T09:51:44.487Z,35.65
2018-09-08T09:54:14.295Z,35.71
2018-09-08T09:56:43.974Z,33.60
2018-09-08T09:59:13.484Z,33.47
2018-09-08T10:01:44.745Z,31.97
2018-09-08T10:04:14.428Z,31.96
2018-09-08T10:06:44.169Z,31.28
2018-09-08T10:09:14.063Z,30.93
2018-09-08T10:11:43.741Z,30.54
2018-09-08T10:14:13.515Z,30.47
2018-09-08T10:16:43.217Z,30.88
2018-09-08T10:19:13.224Z,31.75
2018-09-08T10:21:43.507Z,32.59
2018-09-08T10:24:13.497Z,34.06
2018-09-08T10:26:43.227Z,33.94
2018-09-08T10:29:13.604Z,33.50
2018-09-08T10:31:43.351Z,34.18
2018-09-08T10:34:13.005Z,33.71
2018-09-08T10:36:42.854Z,35.01
2018-09-08T10:39:12.440Z,35.40
2018-09-08T10:41:42.079Z,35.89
2018-09-08T10:44:11.851Z,34.82
2018-09-08T10:46:41.376Z,34.34
2018-09-08T10:49:11.121Z,34.82
2018-09-08T10:51:50.434Z,35.37
2018-09-08T10:54:20.024Z,33.80
2018-09-08T10:56:49.671Z,33.23
2018-09-08T10:59:19.314Z,32.57
2018-09-08T11:01:49.043Z,32.22
2018-09-08T11:04:18.662Z,31.98
2018-09-08T11:06:48.425Z,31.72
2018-09-08T11:09:17.978Z,31.81
2018-09-08T11:11:47.626Z,31.48
2018-09-08T11:14:17.350Z,30.80
2018-09-08T11:16:46.977Z,30.87
2018-09-08T11:19:16.765Z,30.82
2018-09-08T11:21:46.395Z,31.50
2018-09-08T11:24:15.987Z,32.16
2018-09-08T11:26:45.622Z,32.67
2018-09-08T11:29:15.279Z,33.42
2018-09-08T11:31:45.025Z,33.92
2018-09-08T11:34:14.670Z,33.69
2018-09-08T11:36:44.612Z,33.44
2018-09-08T11:39:14.252Z,33.11
2018-09-08T11:41:44.096Z,33.55
2018-09-08T11:44:13.810Z,33.53
2018-09-08T11:46:43.400Z,33.05
2018-09-08T11:49:13.033Z,33.74
2018-09-08T11:51:42.664Z,33.83
2018-09-08T11:54:12.330Z,32.92
2018-09-08T11:56:41.857Z,31.48
2018-09-08T11:59:11.472Z,31.11
2018-09-08T12:01:41.068Z,30.85
2018-09-08T12:04:10.604Z,31.05
2018-09-08T12:06:40.162Z,30.87
2018-09-08T12:09:11.526Z,31.09
2018-09-08T12:11:41.184Z,30.44
2018-09-08T12:14:11.258Z,30.64
2018-09-08T12:16:41.427Z,31.24
2018-09-08T12:19:11.002Z,31.60
2018-09-08T12:21:40.976Z,31.25
2018-09-08T12:24:10.825Z,31.04
2018-09-08T12:26:40.757Z,30.76
2018-09-08T12:29:10.664Z,30.58
2018-09-08T12:31:40.426Z,30.72
2018-09-08T12:34:10.255Z,30.72
2018-09-08T12:36:40.242Z,30.65
2018-09-08T12:39:10.394Z,30.21
2018-09-08T12:41:40.153Z,29.61
2018-09-08T12:44:09.762Z,29.34
2018-09-08T12:46:39.268Z,29.02
2018-09-08T12:49:08.742Z,28.36
2018-09-08T12:51:38.401Z,28.58
2018-09-08T12:54:08.080Z,26.17
2018-09-08T12:56:38.051Z,24.27
2018-09-08T12:59:07.909Z,23.13
2018-09-08T13:01:37.715Z,21.38
2018-09-08T13:04:08.007Z,20.60
2018-09-08T13:06:38.366Z,20.64
2018-09-08T13:09:08.171Z,20.41
2018-09-08T13:11:38.037Z,20.70
2018-09-08T13:14:07.900Z,21.45
2018-09-08T13:16:37.654Z,21.83
2018-09-08T13:19:07.511Z,22.37
2018-09-08T13:21:37.166Z,22.83
2018-09-08T13:24:06.863Z,23.16
2018-09-08T13:26:36.539Z,23.39
2018-09-08T13:29:06.306Z,23.33
2018-09-08T13:31:35.866Z,23.09
2018-09-08T13:34:07.316Z,23.31
2018-09-08T13:36:37.108Z,23.75
2018-09-08T13:39:08.109Z,24.11
2018-09-08T13:41:37.830Z,24.44
2018-09-08T13:44:07.394Z,24.67
2018-09-08T13:46:37.094Z,24.94
2018-09-08T13:49:07.157Z,25.16
2018-09-08T13:51:37.544Z,25.37
2018-09-08T13:54:07.580Z,25.57
2018-09-08T13:56:37.465Z,25.79
2018-09-08T13:59:07.231Z,25.84
2018-09-08T14:01:36.825Z,25.93
2018-09-08T14:04:06.566Z,25.80
2018-09-08T14:06:36.374Z,25.91
2018-09-08T14:09:07.043Z,25.90
2018-09-08T14:11:36.741Z,26.05
2018-09-08T14:14:06.867Z,26.18
2018-09-08T14:16:36.717Z,26.25
2018-09-08T14:19:06.498Z,26.14
2018-09-08T14:21:36.367Z,26.20
2018-09-08T14:24:06.191Z,26.27
2018-09-08T14:26:35.710Z,26.46
2018-09-08T14:29:05.775Z,26.54
2018-09-08T14:31:35.825Z,26.51
2018-09-08T14:34:05.586Z,26.27
2018-09-08T14:36:35.521Z,25.92
2018-09-08T14:39:05.993Z,25.53
2018-09-08T14:41:36.675Z,25.50
2018-09-08T14:44:06.685Z,25.21
2018-09-08T14:46:36.595Z,25.00
2018-09-08T14:49:06.146Z,25.01
2018-09-08T14:51:35.729Z,25.01
2018-09-08T14:54:06.003Z,25.07
2018-09-08T14:56:35.555Z,25.10
2018-09-08T14:59:05.173Z,25.28
2018-09-08T15:01:34.629Z,25.56
2018-09-08T15:04:04.106Z,25.80
2018-09-08T15:06:33.753Z,25.96
2018-09-08T15:09:03.525Z,26.17
2018-09-08T15:11:33.182Z,26.31
2018-09-08T15:14:02.763Z,26.35
2018-09-08T15:16:32.479Z,26.60
2018-09-08T15:19:01.973Z,26.74
2018-09-08T15:21:31.526Z,26.75
2018-09-08T15:24:01.260Z,26.67
2018-09-08T15:26:30.780Z,26.55
2018-09-08T15:29:00.411Z,26.70
2018-09-08T15:31:30.154Z,26.65
2018-09-08T15:33:59.850Z,26.60
2018-09-08T15:36:29.319Z,26.49
2018-09-08T15:38:59.175Z,26.26
2018-09-08T15:41:28.962Z,26.12
2018-09-08T15:43:58.587Z,26.03
2018-09-08T15:46:28.257Z,26.03
2018-09-08T15:48:57.834Z,25.91
2018-09-08T15:51:27.573Z,25.77
2018-09-08T15:53:57.811Z,25.53
2018-09-08T15:56:27.267Z,25.39
2018-09-08T15:58:56.912Z,25.35
2018-09-08T16:01:27.024Z,25.35
2018-09-08T16:03:56.511Z,25.30
2018-09-08T16:06:26.274Z,25.10
2018-09-08T16:08:55.849Z,25.19
2018-09-08T16:11:25.808Z,25.13
2018-09-08T16:13:55.510Z,24.88
2018-09-08T16:16:25.047Z,24.55
2018-09-08T16:18:54.594Z,24.24
2018-09-08T16:21:24.169Z,24.15
2018-09-08T16:23:54.118Z,23.98
2018-09-08T16:26:24.075Z,23.85
2018-09-08T16:28:53.638Z,23.68
2018-09-08T16:31:23.577Z,23.66
2018-09-08T16:33:53.438Z,23.59
2018-09-08T16:36:22.939Z,23.43
2018-09-08T16:38:52.462Z,23.32
2018-09-08T16:41:22.052Z,23.29
2018-09-08T16:43:51.582Z,23.34
2018-09-08T16:46:21.426Z,23.29
2018-09-08T16:48:51.459Z,23.21
2018-09-08T16:51:21.242Z,23.22
2018-09-08T16:53:51.207Z,23.22
2018-09-08T16:56:20.814Z,23.25
2018-09-08T16:58:52.008Z,23.24
2018-09-08T17:01:21.689Z,23.20
2018-09-08T17:03:51.155Z,23.22
2018-09-08T17:06:20.697Z,23.22
2018-09-08T17:08:50.129Z,23.25
2018-09-08T17:11:19.780Z,23.23
2018-09-08T17:13:49.424Z,23.19
2018-09-08T17:16:18.917Z,23.10
2018-09-08T17:18:48.821Z,23.12
2018-09-08T17:21:18.541Z,23.01
2018-09-08T17:23:48.126Z,22.94
2018-09-08T17:26:18.495Z,22.96
2018-09-08T17:28:48.129Z,22.95
2018-09-08T17:31:17.648Z,22.86
2018-09-08T17:33:47.255Z,22.86
2018-09-08T17:36:16.839Z,22.84
2018-09-08T17:38:46.407Z,22.71
2018-09-08T17:41:16.122Z,22.67
2018-09-08T17:43:45.946Z,22.61
2018-09-08T17:46:15.745Z,22.58
2018-09-08T17:48:45.560Z,22.46
2018-09-08T17:51:15.443Z,22.47
2018-09-08T17:53:45.045Z,22.51
2018-09-08T17:56:14.561Z,22.44
2018-09-08T17:58:44.163Z,22.39
2018-09-08T18:01:13.912Z,22.47
2018-09-08T18:03:43.909Z,22.41
2018-09-08T18:06:13.514Z,22.37
2018-09-08T18:08:43.217Z,22.30
2018-09-08T18:11:13.257Z,22.25
2018-09-08T18:13:42.864Z,22.24
2018-09-08T18:16:12.505Z,22.19
2018-09-08T18:18:42.421Z,22.19
2018-09-08T18:21:12.094Z,22.20
2018-09-08T18:23:42.487Z,22.21
2018-09-08T18:26:12.263Z,22.18
2018-09-08T18:28:41.965Z,22.19
2018-09-08T18:31:11.594Z,22.17
2018-09-08T18:33:41.141Z,22.12
2018-09-08T18:36:10.998Z,22.19
2018-09-08T18:38:40.601Z,22.25
2018-09-08T18:41:10.304Z,22.24
2018-09-08T18:43:39.861Z,22.29
2018-09-08T18:46:09.551Z,22.18
2018-09-08T18:48:39.411Z,22.29
2018-09-08T18:51:09.449Z,22.31
2018-09-08T18:53:39.406Z,22.35
2018-09-08T18:56:09.038Z,22.29
2018-09-08T18:58:38.470Z,22.19
2018-09-08T19:01:08.336Z,22.24
2018-09-08T19:03:37.823Z,22.26
2018-09-08T19:06:08.088Z,22.25
2018-09-08T19:08:43.252Z,22.18
2018-09-08T19:11:13.637Z,22.21
2018-09-08T19:13:43.812Z,22.20
2018-09-08T19:16:13.557Z,22.20
2018-09-08T19:18:43.065Z,22.21
2018-09-08T19:21:13.159Z,22.23
2018-09-08T19:23:42.682Z,22.13
2018-09-08T19:26:12.271Z,22.08
2018-09-08T19:28:42.030Z,21.99
2018-09-08T19:31:11.473Z,22.02
2018-09-08T19:33:41.107Z,22.03
2018-09-08T19:36:10.736Z,22.02
2018-09-08T19:38:40.393Z,21.96
2018-09-08T19:41:10.012Z,21.98
2018-09-08T19:43:39.605Z,21.97
2018-09-08T19:46:14.127Z,21.94
2018-09-08T19:48:43.923Z,21.94
2018-09-08T19:51:13.864Z,21.88
2018-09-08T19:53:48.277Z,21.82
2018-09-08T19:56:18.123Z,21.73
2018-09-08T19:58:52.865Z,21.65
2018-09-08T20:01:22.651Z,21.63
2018-09-08T20:03:52.364Z,21.55
2018-09-08T20:06:22.177Z,21.61
2018-09-08T20:08:51.975Z,21.58
2018-09-08T20:11:22.029Z,21.45
2018-09-08T20:13:51.916Z,21.47
2018-09-08T20:16:21.824Z,21.46
2018-09-08T20:18:51.649Z,21.44
2018-09-08T20:21:21.398Z,21.39
2018-09-08T20:23:51.237Z,21.40
2018-09-08T20:26:20.845Z,21.27
2018-09-08T20:28:50.919Z,21.32
2018-09-08T20:31:21.518Z,21.22
2018-09-08T20:33:51.365Z,21.14
2018-09-08T20:36:21.274Z,21.11
2018-09-08T20:38:51.239Z,21.05
2018-09-08T20:41:20.926Z,20.99
2018-09-08T20:43:50.721Z,20.96
2018-09-08T20:46:20.481Z,20.88
2018-09-08T20:48:50.306Z,20.78
2018-09-08T20:51:20.188Z,20.74
2018-09-08T20:53:50.075Z,20.65
2018-09-08T20:56:19.679Z,20.56
2018-09-08T20:58:50.370Z,20.63
2018-09-08T21:01:20.240Z,20.63
2018-09-08T21:03:49.999Z,20.70
2018-09-08T21:06:19.711Z,20.73
2018-09-08T21:08:49.604Z,20.73
2018-09-08T21:11:19.495Z,20.77
2018-09-08T21:13:49.066Z,20.76
2018-09-08T21:16:18.676Z,20.78
2018-09-08T21:18:48.369Z,20.79
2018-09-08T21:21:17.892Z,20.73
2018-09-08T21:23:47.358Z,20.74
2018-09-08T21:26:16.806Z,20.71
2018-09-08T21:28:46.607Z,20.67
2018-09-08T21:31:16.130Z,20.64
2018-09-08T21:33:45.715Z,20.77
2018-09-08T21:36:15.341Z,20.75
2018-09-08T21:38:45.086Z,20.72
2018-09-08T21:41:14.655Z,20.62
2018-09-08T21:43:44.656Z,20.64
2018-09-08T21:46:14.340Z,20.65
2018-09-08T21:48:44.050Z,20.61
2018-09-08T21:51:13.750Z,20.55
2018-09-08T21:53:43.762Z,20.51
2018-09-08T21:56:13.228Z,20.51
2018-09-08T21:58:42.827Z,20.41
2018-09-08T22:01:17.430Z,20.35
2018-09-08T22:03:46.899Z,20.35
2018-09-08T22:06:16.381Z,20.36
2018-09-08T22:08:45.966Z,20.34
2018-09-08T22:11:16.035Z,20.37
2018-09-08T22:13:45.866Z,20.36
2018-09-08T22:16:15.456Z,20.36
2018-09-08T22:18:45.450Z,20.21
2018-09-08T22:21:15.080Z,20.21
2018-09-08T22:23:45.595Z,20.15
2018-09-08T22:26:15.102Z,20.14
2018-09-08T22:28:45.620Z,20.21
2018-09-08T22:31:15.161Z,20.17
2018-09-08T22:33:44.696Z,20.08
2018-09-08T22:36:14.442Z,20.01
2018-09-08T22:38:43.930Z,20.04
2018-09-08T22:41:13.434Z,19.99
2018-09-08T22:43:42.894Z,19.89
2018-09-08T22:46:12.421Z,19.77
2018-09-08T22:48:41.942Z,19.65
2018-09-08T22:51:11.538Z,19.57
2018-09-08T22:53:41.063Z,19.61
2018-09-08T22:56:10.605Z,19.57
2018-09-08T22:58:40.288Z,19.58
2018-09-08T23:01:09.907Z,19.50
2018-09-08T23:03:39.334Z,19.59
2018-09-08T23:06:09.307Z,19.76
2018-09-08T23:08:39.296Z,19.97
2018-09-08T23:11:09.021Z,20.06
2018-09-08T23:13:38.574Z,20.21
2018-09-08T23:16:08.341Z,20.14
2018-09-08T23:18:38.278Z,20.13
2018-09-08T23:21:08.021Z,20.22
2018-09-08T23:23:37.619Z,20.19
2018-09-08T23:26:08.137Z,20.22
2018-09-08T23:28:37.917Z,20.29
2018-09-08T23:31:07.456Z,20.29
2018-09-08T23:33:38.000Z,20.23
2018-09-08T23:36:09.187Z,20.24
2018-09-08T23:38:38.661Z,20.21
2018-09-08T23:41:08.409Z,20.20
2018-09-08T23:43:37.925Z,20.12
2018-09-08T23:46:07.640Z,20.09
2018-09-08T23:48:37.260Z,19.98
2018-09-08T23:51:07.043Z,19.94
2018-09-08T23:53:36.678Z,19.92
2018-09-08T23:56:06.308Z,19.85
2018-09-08T23:58:37.080Z,19.85
